Terminal Aerodrome Forecast
Issued by NWS

Home | Current Version | Previous Version | Graphics & Text | Print | Product List | Glossary On
Versions: 1 2 3 4 5 6 7 8 9 10 11 12 13 14
000
FTUS43 KBIS 162300
TAFJMS
TAF
KJMS 162334Z 1700/1724 04013KT P6SM SCT090
     FM170500 03008KT P6SM SCT100
     FM171800 08005KT P6SM SCT060
     FM172200 14009KT P6SM BKN060=

USA.gov is the U.S. government's official web portal to all federal, state and local government web resources and services.